Grapeview, Washington
Current Conditions -  °F | °C
As of 6:15 PM on Saturday 25 Oct 2014 (Local Time) from KPWT Reporting Station
Overcast Overcast  
Wind Chill: 55°   Ceiling: 2200
Heat Index: 55°   Visibility: 8mi
Dew Point: 54°   Wind: 20mph
Humidity: 94%   Direction: 210°SSW
Pressure: 29.29"   Gusts: 29mph
Location:  47.33°N, 122.84°W
Report Text: KPWT 260115Z AUTO 21017G25KT 8SM SCT012 BKN022 OVC038 13/12 A2929 RMK AO1 P0009
Loading
Personal Weather Stations






























Interactive Weather Map
Tropical Storm Tracking
New forecast layout! Learn more

10-Day Weather Forecast

Advertisements
Track Severe Weather on mobile